Jyvaskyla Airport

About
Name: Jyvaskyla Airport
Identifier:  JYV/EFJY
Serves:  Jyväskylä
Operator:  Finavia
Public/Private:  Public
Local Time:  23. Aug 05:36 EEST
Description: Jyväskylä Airport is an airport in Jyväskylä, Finland. It is located in the center of the Finnish Lake District approximately 20 kilometres north of the center of Jyväskylä. The airport terminal was renovated in the fall of 2004.
Source: Wikipedia
Location
Jyvaskyla
  Finland

Runways
Identifier Length (m/ft) Surface
12/30 2,601/8,533 Asphalt
Flights per Day
4 flights
Distance: 234km (145mi)
Punctuality
75% (1 flights per day delayed)
Delay Average: 2 minutes
Current Weather
 7 C (Humidity: 93%)
  4kt (7km/h / 4mph) from 170°
  9km (6 mi.)
 METAR EFJY 230220Z AUTO 17004KT 9999 VCSH SCT014 BKN039 BKN066 //////CB 07/06 Q1020

Current Flights

Departures
Number Departure To Airline
 AY290 05:50  Helsinki  Finnair
 AY286 17:00 +2  Helsinki  Finnair
Arrivals
Number Arrival From Airline
 AY285 16:35  Helsinki  Finnair
 AY289 00:25  Helsinki  Finnair

Current Delays

Departures
N/A
Arrivals
N/A

Destinations

Top Destinations
Airport Flights
per week
Seats
per week
  Helsinki (HEL) 25 1,680 3 240
  Kajaani (KAJ) 4 326 0 46
  Tampere (TMP) 1 - 0 0
  Rovaniemi (RVN) 1 - 0 0

Airlines & Planes

Top Airlines
Airline Flights
per Day
Seats
per Day
  Flybe Nordic 4 286
Top Plane Types
Model Flights Seats
ATR 76-500 4.1/day 286/day 286.6666666666667
Pilatus PC-12 0.5/day - 0